Time;durP1;ratioP1;P1;durP2;ratioP2;P2;SDS_P1;SDS_P2;PMS_P1;PMS_P2;Temp;Humidity;BMP_temperature;BMP_pressure;BME280_temperature;BME280_humidity;BME280_pressure;Samples;Min_cycle;Max_cycle;Signal;HPM_P1;HPM_P2
2021/10/10 00:00:14;;;;;;;12.90;11.77;;;8.50;99.90;;;;;;5034472;28;20190;-64
2021/10/10 00:02:40;;;;;;;12.53;11.27;;;8.50;99.90;;;;;;5033497;28;20224;-64
2021/10/10 00:05:07;;;;;;;12.43;11.27;;;8.50;99.90;;;;;;5042597;28;20257;-65
2021/10/10 00:07:33;;;;;;;11.13;10.13;;;8.40;99.90;;;;;;5053213;28;20582;-64
2021/10/10 00:09:58;;;;;;;12.10;10.80;;;8.40;99.90;;;;;;5048019;28;20179;-63
2021/10/10 00:12:24;;;;;;;11.53;10.33;;;8.40;99.90;;;;;;5033271;28;20187;-64
2021/10/10 00:14:50;;;;;;;11.33;10.20;;;8.40;99.90;;;;;;5033502;28;20183;-64
2021/10/10 00:17:15;;;;;;;11.07;10.13;;;8.30;99.90;;;;;;5033341;28;20199;-63
2021/10/10 00:19:41;;;;;;;11.17;10.03;;;8.30;99.90;;;;;;5032755;28;20218;-64
2021/10/10 00:22:07;;;;;;;12.47;11.33;;;8.20;99.90;;;;;;5035597;28;20695;-64
2021/10/10 00:24:33;;;;;;;12.77;11.37;;;8.10;99.90;;;;;;5052972;28;20171;-64
2021/10/10 00:26:59;;;;;;;11.20;10.20;;;8.10;99.90;;;;;;5051721;28;20244;-64
2021/10/10 00:29:25;;;;;;;12.63;11.43;;;8.00;99.90;;;;;;5052473;28;20186;-63
2021/10/10 00:31:50;;;;;;;13.07;9.63;;;7.90;99.90;;;;;;5039441;28;20187;-64
2021/10/10 00:34:16;;;;;;;12.13;10.57;;;7.90;99.90;;;;;;5032877;28;20191;-64
2021/10/10 00:36:41;;;;;;;12.23;10.57;;;7.80;99.90;;;;;;5043652;28;20211;-64
2021/10/10 00:39:07;;;;;;;12.60;11.63;;;7.80;99.90;;;;;;5052583;28;20249;-64
2021/10/10 00:41:36;;;;;;;10.73;9.83;;;7.80;99.90;;;;;;5043134;28;20561;-64
2021/10/10 00:44:12;;;;;;;11.87;10.63;;;7.80;99.90;;;;;;5032663;28;20172;-64
2021/10/10 00:46:38;;;;;;;11.27;10.37;;;7.70;99.90;;;;;;5040848;28;20194;-64
2021/10/10 00:49:05;;;;;;;11.80;10.53;;;7.60;99.90;;;;;;5052327;28;20201;-64
2021/10/10 00:51:34;;;;;;;10.80;9.93;;;7.60;99.90;;;;;;5044679;28;20187;-64
2021/10/10 00:54:00;;;;;;;12.10;11.03;;;7.60;99.90;;;;;;5032484;28;20186;-64
2021/10/10 00:56:27;;;;;;;11.73;10.73;;;7.60;99.90;;;;;;5038711;28;20203;-64
2021/10/10 00:58:55;;;;;;;11.17;10.17;;;7.50;99.90;;;;;;5049681;28;20656;-64
2021/10/10 01:01:21;;;;;;;11.17;10.37;;;7.50;99.90;;;;;;5032267;28;20247;-64
2021/10/10 01:03:46;;;;;;;11.57;10.67;;;7.40;99.90;;;;;;5033045;28;20179;-64
2021/10/10 01:06:12;;;;;;;11.17;10.13;;;7.40;99.90;;;;;;5052081;28;20221;-64
2021/10/10 01:08:39;;;;;;;11.57;10.70;;;7.30;99.90;;;;;;5052227;28;20213;-64
2021/10/10 01:11:04;;;;;;;11.23;10.33;;;7.30;99.90;;;;;;5032336;28;20184;-64
2021/10/10 01:13:30;;;;;;;10.33;9.63;;;7.20;99.90;;;;;;5032200;28;20251;-62
2021/10/10 01:15:56;;;;;;;9.80;9.10;;;7.10;99.90;;;;;;5049170;28;20688;-64
2021/10/10 01:18:23;;;;;;;10.10;9.20;;;7.10;99.90;;;;;;5052097;28;20567;-64
2021/10/10 01:20:50;;;;;;;10.30;9.43;;;7.10;99.90;;;;;;5035298;28;20188;-64
2021/10/10 01:23:15;;;;;;;9.97;9.17;;;7.00;99.90;;;;;;5031500;28;20172;-64
2021/10/10 01:25:41;;;;;;;10.97;10.00;;;6.90;99.90;;;;;;5045689;28;20228;-64
2021/10/10 01:28:07;;;;;;;11.10;10.03;;;6.80;99.90;;;;;;5041547;28;20652;-64
2021/10/10 01:30:33;;;;;;;10.33;9.33;;;6.80;99.90;;;;;;5031752;28;20179;-64
2021/10/10 01:32:59;;;;;;;10.80;9.80;;;6.80;99.90;;;;;;5040154;28;20183;-64
2021/10/10 01:35:25;;;;;;;10.80;9.83;;;6.70;99.90;;;;;;5051712;28;20186;-64
2021/10/10 01:37:50;;;;;;;10.33;9.53;;;6.70;99.90;;;;;;5044792;28;20184;-63
2021/10/10 01:40:16;;;;;;;10.37;9.60;;;6.70;99.90;;;;;;5032746;28;20254;-64
2021/10/10 01:42:42;;;;;;;12.13;10.63;;;6.70;99.90;;;;;;5031751;28;20633;-64
2021/10/10 01:45:22;;;;;;;12.87;11.97;;;6.60;99.90;;;;;;5033714;28;20250;-64
2021/10/10 01:47:48;;;;;;;12.63;11.53;;;6.50;99.90;;;;;;5051504;28;20170;-64
2021/10/10 01:50:13;;;;;;;10.90;9.83;;;6.50;99.90;;;;;;5047564;28;20237;-64
2021/10/10 01:52:43;;;;;;;10.97;10.10;;;6.50;99.90;;;;;;5031733;28;20690;-64
2021/10/10 01:55:09;;;;;;;8.83;8.23;;;6.50;99.90;;;;;;5033645;28;20251;-64
2021/10/10 01:57:36;;;;;;;11.23;10.07;;;6.40;99.90;;;;;;5051475;28;20715;-63
2021/10/10 02:00:06;;;;;;;10.87;10.10;;;6.40;99.90;;;;;;5050359;28;20163;-63
2021/10/10 02:02:32;;;;;;;10.87;9.87;;;6.50;99.90;;;;;;5031463;28;20171;-64
2021/10/10 02:04:57;;;;;;;11.30;10.30;;;6.40;99.90;;;;;;5030371;28;20577;-64
2021/10/10 02:07:23;;;;;;;11.60;10.70;;;6.40;99.90;;;;;;5050562;28;20205;-64
2021/10/10 02:09:48;;;;;;;10.77;9.77;;;6.30;99.90;;;;;;5051082;28;20206;-64
2021/10/10 02:12:14;;;;;;;11.23;10.13;;;6.30;99.90;;;;;;5033807;28;20237;-64
2021/10/10 02:14:39;;;;;;;11.50;10.50;;;6.40;99.90;;;;;;5031388;28;20199;-63
2021/10/10 02:17:05;;;;;;;12.00;10.90;;;6.30;99.90;;;;;;5046615;28;20215;-64
2021/10/10 02:19:32;;;;;;;11.60;10.80;;;6.20;99.90;;;;;;5051119;28;20175;-64
2021/10/10 02:21:58;;;;;;;10.97;10.07;;;6.20;99.90;;;;;;5037266;28;20184;-64
2021/10/10 02:24:23;;;;;;;11.57;10.47;;;6.20;99.90;;;;;;5041117;28;20190;-64
2021/10/10 02:26:49;;;;;;;10.83;10.03;;;6.20;99.90;;;;;;5051152;28;20207;-64
2021/10/10 02:29:15;;;;;;;11.33;10.50;;;6.10;99.90;;;;;;5043531;28;20201;-68
2021/10/10 02:31:44;;;;;;;11.47;10.60;;;6.10;99.90;;;;;;5033026;28;20175;-67
2021/10/10 02:34:10;;;;;;;11.07;10.17;;;6.00;99.90;;;;;;5036676;28;20191;-69
2021/10/10 02:36:37;;;;;;;10.47;9.57;;;6.00;99.90;;;;;;5036987;28;20287;-67
2021/10/10 02:39:03;;;;;;;11.90;10.87;;;6.00;99.90;;;;;;5042875;28;20232;-67
2021/10/10 02:41:29;;;;;;;9.47;8.83;;;6.00;99.90;;;;;;5055356;28;20214;-67
2021/10/10 02:43:55;;;;;;;10.70;9.80;;;5.90;99.90;;;;;;5052108;28;20187;-67
2021/10/10 02:46:20;;;;;;;10.20;9.43;;;5.80;99.90;;;;;;5035676;28;20706;-68
2021/10/10 02:48:47;;;;;;;12.60;10.10;;;5.80;99.90;;;;;;5039639;28;20244;-68
2021/10/10 02:51:12;;;;;;;10.60;9.73;;;5.70;99.90;;;;;;5056489;28;20171;-67
2021/10/10 02:53:38;;;;;;;9.33;8.73;;;5.70;99.90;;;;;;5038455;28;20183;-68
2021/10/10 02:56:04;;;;;;;9.97;9.23;;;5.70;99.90;;;;;;5036457;28;20254;-69
2021/10/10 02:58:30;;;;;;;11.30;10.40;;;5.60;99.90;;;;;;5052551;28;20173;-69
2021/10/10 03:00:55;;;;;;;10.60;9.60;;;5.60;99.90;;;;;;5044008;28;20229;-66
2021/10/10 03:03:21;;;;;;;11.93;10.87;;;5.50;99.90;;;;;;5036389;28;20605;-66
2021/10/10 03:05:47;;;;;;;11.90;11.03;;;5.50;99.90;;;;;;5045673;28;20201;-67
2021/10/10 03:08:13;;;;;;;11.33;10.33;;;5.50;99.90;;;;;;5056445;28;20665;-67
2021/10/10 03:10:38;;;;;;;11.33;10.30;;;5.50;99.90;;;;;;5049417;28;20175;-67
2021/10/10 03:13:04;;;;;;;10.73;9.93;;;5.50;99.90;;;;;;5056186;28;20520;-67
2021/10/10 03:15:30;;;;;;;12.33;11.13;;;5.50;99.90;;;;;;5050272;28;20226;-69
2021/10/10 03:17:56;;;;;;;11.87;10.80;;;5.60;99.90;;;;;;5036091;28;20167;-68
2021/10/10 03:20:22;;;;;;;11.23;10.23;;;5.60;99.90;;;;;;5040387;28;20185;-68
2021/10/10 03:22:48;;;;;;;11.57;10.73;;;5.60;99.90;;;;;;5056284;28;20255;-68
2021/10/10 03:25:13;;;;;;;9.53;8.73;;;5.60;99.90;;;;;;5052844;28;20705;-64
2021/10/10 03:27:39;;;;;;;11.10;10.10;;;5.70;99.90;;;;;;5036003;28;20843;-67
2021/10/10 03:30:06;;;;;;;12.97;10.47;;;5.80;99.90;;;;;;5036086;28;20179;-64
2021/10/10 03:32:31;;;;;;;11.50;10.50;;;5.80;99.90;;;;;;5035861;28;20167;-69
2021/10/10 03:34:57;;;;;;;14.47;9.80;;;5.90;99.90;;;;;;5036043;28;20175;-69
2021/10/10 03:37:23;;;;;;;10.27;8.90;;;5.90;99.90;;;;;;5036695;28;20261;-69
2021/10/10 03:39:49;;;;;;;9.80;9.10;;;5.90;99.90;;;;;;5035690;28;20168;-66
2021/10/10 03:42:15;;;;;;;10.80;9.80;;;6.00;99.90;;;;;;5053403;28;20182;-69
2021/10/10 03:44:40;;;;;;;10.20;9.47;;;5.90;99.90;;;;;;5054505;28;20232;-69
2021/10/10 03:47:06;;;;;;;11.07;10.07;;;5.80;99.90;;;;;;5041950;28;20199;-66
2021/10/10 03:49:32;;;;;;;11.07;10.17;;;5.80;99.90;;;;;;5035322;28;20210;-67
2021/10/10 03:51:58;;;;;;;11.67;10.67;;;5.80;99.90;;;;;;5035149;28;20180;-67
2021/10/10 03:56:50;;;;;;;13.20;12.00;;;5.80;99.90;;;;;;5035140;28;20268;-64
2021/10/10 03:59:16;;;;;;;12.83;11.80;;;5.80;99.90;;;;;;5044778;28;20179;-64
2021/10/10 04:01:43;;;;;;;11.80;10.73;;;5.80;99.90;;;;;;5053487;28;20198;-64
2021/10/10 04:04:09;;;;;;;12.27;11.40;;;5.80;99.90;;;;;;5043719;28;20233;-64
2021/10/10 04:06:34;;;;;;;10.63;9.90;;;5.80;99.90;;;;;;5034955;28;20207;-64
2021/10/10 04:09:00;;;;;;;10.70;9.63;;;5.90;99.90;;;;;;5041338;28;20265;-64
2021/10/10 04:11:25;;;;;;;11.00;10.00;;;5.90;99.90;;;;;;5053296;28;20179;-64
2021/10/10 04:13:51;;;;;;;11.93;10.77;;;5.90;99.90;;;;;;5046341;28;20549;-64
2021/10/10 04:16:17;;;;;;;11.23;9.80;;;5.90;99.90;;;;;;5033212;28;20599;-64
2021/10/10 04:18:42;;;;;;;11.17;10.17;;;5.90;99.90;;;;;;5037848;28;20202;-62
2021/10/10 04:21:08;;;;;;;10.90;10.10;;;5.90;99.90;;;;;;5052869;28;20209;-64
2021/10/10 04:23:34;;;;;;;11.50;10.43;;;5.90;99.90;;;;;;5049789;28;20175;-65
2021/10/10 04:25:59;;;;;;;11.60;10.60;;;5.90;99.90;;;;;;5032949;28;20245;-64
2021/10/10 04:28:25;;;;;;;10.90;10.07;;;5.90;99.90;;;;;;5043415;28;20244;-64
2021/10/10 04:30:51;;;;;;;11.30;10.40;;;5.90;99.90;;;;;;5052714;28;20183;-63
2021/10/10 04:33:17;;;;;;;11.40;10.50;;;5.80;99.90;;;;;;5043837;28;20575;-64
2021/10/10 04:35:43;;;;;;;10.57;9.73;;;5.80;99.90;;;;;;5032766;28;20208;-62
2021/10/10 04:38:10;;;;;;;12.10;11.00;;;5.70;99.90;;;;;;5039925;28;20183;-64
2021/10/10 04:40:36;;;;;;;11.40;10.50;;;5.70;99.90;;;;;;5052380;28;20171;-63
2021/10/10 04:43:08;;;;;;;12.37;10.93;;;5.70;99.90;;;;;;5038906;28;20171;-64
2021/10/10 04:45:34;;;;;;;10.67;9.67;;;5.60;99.90;;;;;;5031323;28;20270;-64
2021/10/10 04:48:00;;;;;;;11.27;10.20;;;5.60;99.90;;;;;;5045397;28;20664;-65
2021/10/10 04:50:26;;;;;;;10.97;9.97;;;5.60;99.90;;;;;;5051519;28;20526;-65
2021/10/10 04:52:51;;;;;;;11.47;10.40;;;5.50;99.90;;;;;;5041230;28;20241;-64
2021/10/10 04:55:17;;;;;;;11.40;9.93;;;5.50;99.90;;;;;;5032487;28;20830;-64
2021/10/10 04:57:42;;;;;;;11.60;10.60;;;5.50;99.90;;;;;;5041443;28;20369;-65
2021/10/10 05:00:10;;;;;;;11.53;10.33;;;5.50;99.90;;;;;;5052005;28;20167;-65
2021/10/10 05:02:36;;;;;;;11.07;10.17;;;5.50;99.90;;;;;;5044342;28;20607;-64
2021/10/10 05:05:01;;;;;;;12.23;11.17;;;5.50;99.90;;;;;;5032526;28;20203;-64
2021/10/10 05:07:27;;;;;;;10.77;9.83;;;5.50;99.90;;;;;;5038230;28;20202;-64
2021/10/10 05:09:53;;;;;;;11.93;10.47;;;5.50;99.90;;;;;;5050138;28;20191;-64
2021/10/10 05:12:18;;;;;;;11.93;10.90;;;5.50;99.90;;;;;;5032255;28;20175;-64
2021/10/10 05:14:44;;;;;;;12.90;11.80;;;5.50;99.90;;;;;;5032209;28;20183;-64
2021/10/10 05:17:10;;;;;;;13.50;12.27;;;5.50;99.90;;;;;;5051836;28;20218;-64
2021/10/10 05:19:35;;;;;;;11.87;10.83;;;5.50;99.90;;;;;;5051862;28;20200;-64
2021/10/10 05:22:02;;;;;;;11.00;10.17;;;5.40;99.90;;;;;;5033711;28;20176;-63
2021/10/10 05:24:28;;;;;;;12.57;11.47;;;5.40;99.90;;;;;;5032232;28;20172;-64
2021/10/10 05:26:54;;;;;;;11.53;10.57;;;5.40;99.90;;;;;;5048334;28;20212;-63
2021/10/10 05:29:19;;;;;;;11.17;10.27;;;5.40;99.90;;;;;;5051792;28;20174;-63
2021/10/10 05:31:45;;;;;;;12.33;11.30;;;5.40;99.90;;;;;;5036886;28;20233;-64
2021/10/10 05:34:10;;;;;;;13.57;12.47;;;5.40;99.90;;;;;;5031906;28;20262;-64
2021/10/10 05:36:36;;;;;;;13.27;11.50;;;5.40;99.90;;;;;;5032165;28;20747;-63
2021/10/10 05:39:02;;;;;;;13.73;12.43;;;5.30;99.90;;;;;;5038596;28;20270;-64
2021/10/10 05:41:28;;;;;;;12.77;11.67;;;5.30;99.90;;;;;;5051727;28;20221;-64
2021/10/10 05:43:53;;;;;;;12.17;10.97;;;5.30;99.90;;;;;;5044748;28;20183;-64
2021/10/10 05:46:19;;;;;;;12.90;11.60;;;5.30;99.90;;;;;;5030794;28;20547;-60
2021/10/10 05:48:45;;;;;;;14.13;11.23;;;5.30;99.90;;;;;;5036572;28;20193;-64
2021/10/10 05:51:10;;;;;;;12.23;11.33;;;5.30;99.90;;;;;;5051609;28;20593;-64
2021/10/10 05:53:38;;;;;;;12.13;11.03;;;5.30;99.90;;;;;;5048178;28;20179;-60
2021/10/10 05:56:04;;;;;;;12.40;11.33;;;5.30;99.90;;;;;;5034705;28;20223;-65
2021/10/10 05:58:33;;;;;;;13.40;12.33;;;5.30;99.90;;;;;;5031629;28;20167;-65
2021/10/10 06:00:59;;;;;;;12.30;11.20;;;5.30;99.90;;;;;;5030232;28;20615;-64
2021/10/10 06:03:25;;;;;;;14.07;12.67;;;5.30;99.90;;;;;;5031708;28;20203;-64
2021/10/10 06:05:51;;;;;;;11.63;10.53;;;5.40;99.90;;;;;;5030881;28;20199;-64
2021/10/10 06:08:16;;;;;;;12.67;11.67;;;5.40;99.90;;;;;;5051929;28;20275;-64
2021/10/10 06:10:43;;;;;;;13.43;11.43;;;5.40;99.90;;;;;;5055072;28;20648;-65
2021/10/10 06:13:09;;;;;;;12.63;11.47;;;5.50;99.90;;;;;;5037499;28;20205;-63
2021/10/10 06:15:35;;;;;;;12.03;10.90;;;5.50;99.90;;;;;;5035282;28;20292;-62
2021/10/10 06:18:01;;;;;;;13.67;12.57;;;5.60;99.90;;;;;;5051498;28;20206;-64
2021/10/10 06:20:27;;;;;;;13.00;11.80;;;5.60;99.90;;;;;;5054970;28;20652;-64
2021/10/10 06:22:52;;;;;;;11.60;10.50;;;5.70;99.90;;;;;;5040579;28;20551;-64
2021/10/10 06:25:18;;;;;;;11.83;10.73;;;5.70;99.90;;;;;;5035252;28;20168;-64
2021/10/10 06:27:44;;;;;;;12.73;11.73;;;5.70;99.90;;;;;;5039859;28;20183;-64
2021/10/10 06:30:10;;;;;;;11.97;10.90;;;5.80;99.90;;;;;;5035929;28;20188;-63
2021/10/10 06:32:36;;;;;;;12.80;11.70;;;5.90;99.90;;;;;;5035308;28;20179;-64
2021/10/10 06:35:01;;;;;;;14.27;12.87;;;5.90;99.90;;;;;;5039650;28;20251;-65
2021/10/10 06:37:27;;;;;;;12.70;11.37;;;6.00;99.90;;;;;;5054705;28;20242;-65
2021/10/10 06:39:53;;;;;;;11.20;10.33;;;6.00;99.90;;;;;;5051712;28;20175;-64
2021/10/10 06:42:18;;;;;;;12.57;11.50;;;6.10;99.90;;;;;;5034916;28;20176;-64
2021/10/10 06:44:44;;;;;;;14.33;12.90;;;6.10;99.90;;;;;;5035850;28;20876;-64
2021/10/10 06:47:10;;;;;;;13.10;11.80;;;6.20;99.90;;;;;;5052911;28;20194;-65
2021/10/10 06:49:35;;;;;;;13.07;11.77;;;6.20;99.90;;;;;;5054528;28;20633;-63
2021/10/10 06:52:01;;;;;;;12.63;11.33;;;6.30;99.90;;;;;;5035137;28;20191;-64
2021/10/10 06:54:27;;;;;;;13.47;12.07;;;6.40;99.90;;;;;;5034800;28;20211;-63
2021/10/10 06:56:53;;;;;;;13.20;12.00;;;6.50;99.90;;;;;;5051866;28;20226;-64
2021/10/10 06:59:18;;;;;;;14.53;11.57;;;6.70;99.90;;;;;;5041192;28;20179;-63
2021/10/10 07:01:44;;;;;;;21.40;12.63;;;7.00;99.90;;;;;;5034536;28;20167;-64
2021/10/10 07:04:10;;;;;;;13.87;12.57;;;7.30;99.90;;;;;;5045449;28;20194;-60
2021/10/10 07:06:36;;;;;;;13.53;12.17;;;7.60;99.90;;;;;;5054393;28;20191;-64
2021/10/10 07:09:02;;;;;;;13.67;11.97;;;7.90;99.90;;;;;;5044479;28;20740;-63
2021/10/10 07:11:27;;;;;;;17.40;13.97;;;8.20;99.90;;;;;;5034426;28;20176;-64
2021/10/10 07:13:53;;;;;;;15.03;12.07;;;8.50;99.90;;;;;;5042043;28;20248;-64
2021/10/10 07:16:25;;;;;;;15.83;12.40;;;8.70;99.90;;;;;;5054090;28;20356;-64
2021/10/10 07:18:52;;;;;;;14.40;10.93;;;9.00;99.90;;;;;;5046992;28;20214;-64
2021/10/10 07:26:22;;;;;;;11.20;10.10;;;9.70;99.90;;;;;;5049256;28;20336;-64
2021/10/10 07:28:48;;;;;;;9.70;8.90;;;10.20;99.90;;;;;;5034047;28;20183;-63
2021/10/10 07:31:14;;;;;;;13.00;10.20;;;10.60;99.90;;;;;;5033964;28;20258;-64
2021/10/10 07:33:40;;;;;;;9.93;9.03;;;11.20;99.90;;;;;;5032723;28;20274;-64
2021/10/10 07:36:06;;;;;;;10.97;8.40;;;11.50;99.90;;;;;;5040305;28;20257;-64
2021/10/10 07:38:33;;;;;;;9.63;8.60;;;11.80;99.90;;;;;;5050360;28;20171;-64
2021/10/10 07:41:03;;;;;;;9.47;8.57;;;12.10;99.90;;;;;;5033716;28;20183;-64
2021/10/10 07:43:30;;;;;;;10.60;9.57;;;12.30;99.90;;;;;;5033952;28;20167;-62
2021/10/10 07:46:05;;;;;;;9.73;8.77;;;12.00;99.90;;;;;;5032893;28;20294;-63
2021/10/10 07:48:31;;;;;;;10.47;8.93;;;11.90;99.90;;;;;;5032508;28;20214;-64
2021/10/10 07:50:56;;;;;;;9.77;8.87;;;12.00;99.90;;;;;;5033457;28;20672;-64
2021/10/10 07:53:22;;;;;;;8.87;8.00;;;12.20;99.90;;;;;;5033719;28;20267;-63
2021/10/10 07:55:48;;;;;;;9.47;8.40;;;12.40;99.90;;;;;;5035512;28;20684;-63
2021/10/10 07:58:13;;;;;;;9.93;8.47;;;12.50;99.90;;;;;;5046811;28;20186;-64
2021/10/10 08:00:39;;;;;;;9.57;8.60;;;12.70;99.90;;;;;;5033354;28;20542;-64
2021/10/10 08:03:04;;;;;;;8.67;7.87;;;13.00;99.90;;;;;;5033552;28;20186;-64
2021/10/10 08:05:41;;;;;;;9.60;8.50;;;12.90;99.90;;;;;;5033369;28;20530;-61
2021/10/10 08:08:07;;;;;;;8.87;8.07;;;12.90;99.90;;;;;;5013653;28;20176;-64
2021/10/10 08:10:33;;;;;;;9.20;8.40;;;12.80;99.90;;;;;;5013094;28;20208;-64
2021/10/10 08:13:00;;;;;;;9.23;8.33;;;13.00;99.90;;;;;;5051281;28;20815;-63
2021/10/10 08:15:25;;;;;;;10.70;9.03;;;13.30;99.90;;;;;;5051409;28;20549;-64
2021/10/10 08:17:51;;;;;;;9.83;8.73;;;13.50;99.90;;;;;;5042056;28;20207;-64
2021/10/10 08:20:17;;;;;;;9.57;8.53;;;13.80;99.90;;;;;;5051485;28;20175;-63
2021/10/10 08:22:45;;;;;;;9.50;8.47;;;14.00;99.90;;;;;;5033137;28;20202;-63
2021/10/10 08:25:11;;;;;;;11.47;9.00;;;14.40;99.90;;;;;;5038877;28;20252;-64
2021/10/10 08:27:38;;;;;;;8.40;7.70;;;14.70;99.90;;;;;;5052934;28;20182;-64
2021/10/10 08:30:06;;;;;;;7.90;7.10;;;15.00;99.90;;;;;;5046699;28;20206;-64
2021/10/10 08:32:32;;;;;;;9.90;8.83;;;15.30;99.90;;;;;;5032252;28;20190;-64
2021/10/10 08:34:57;;;;;;;8.50;7.77;;;15.50;99.90;;;;;;5036930;28;20182;-64
2021/10/10 08:37:23;;;;;;;8.50;7.67;;;15.80;99.90;;;;;;5052686;28;20612;-64
2021/10/10 08:39:49;;;;;;;8.60;7.80;;;16.10;99.90;;;;;;5049801;28;20700;-64
2021/10/10 08:42:18;;;;;;;8.83;7.70;;;16.30;99.90;;;;;;5032668;28;20180;-63
2021/10/10 08:44:47;;;;;;;8.30;7.53;;;16.80;99.90;;;;;;5033653;28;20689;-63
2021/10/10 08:47:15;;;;;;;8.40;7.60;;;17.00;99.90;;;;;;5052597;28;20194;-63
2021/10/10 08:49:42;;;;;;;8.60;7.80;;;17.00;99.90;;;;;;5050414;28;20621;-63
2021/10/10 08:52:11;;;;;;;8.47;7.63;;;16.90;99.90;;;;;;5032438;28;20882;-64
2021/10/10 08:54:37;;;;;;;7.67;7.00;;;16.80;99.90;;;;;;5032484;28;20237;-64
2021/10/10 08:57:05;;;;;;;8.03;7.23;;;17.20;99.90;;;;;;5051237;28;20202;-64
2021/10/10 08:59:33;;;;;;;8.17;7.37;;;17.50;99.90;;;;;;5051147;28;20186;-64
2021/10/10 09:02:01;;;;;;;7.83;7.10;;;17.90;99.90;;;;;;5051935;28;20189;-64
2021/10/10 09:04:38;;;;;;;8.20;7.40;;;18.20;99.90;;;;;;5051987;28;20207;-64
2021/10/10 09:07:04;;;;;;;9.30;8.47;;;18.80;99.90;;;;;;5032216;28;20191;-63
2021/10/10 09:09:31;;;;;;;7.93;7.10;;;18.40;99.90;;;;;;5039961;28;20225;-63
2021/10/10 09:12:02;;;;;;;7.97;7.20;;;18.30;99.90;;;;;;5037301;28;20584;-61
2021/10/10 09:14:28;;;;;;;7.50;6.80;;;18.30;99.90;;;;;;5043981;28;20178;-62
2021/10/10 09:17:17;;;;;;;7.97;7.17;;;18.10;99.90;;;;;;5032297;28;20225;-64
2021/10/10 09:19:54;;;;;;;8.30;7.33;;;18.30;99.90;;;;;;5043665;28;20261;-63
2021/10/10 09:22:22;;;;;;;6.97;6.27;;;18.60;99.90;;;;;;5051978;28;20206;-63
2021/10/10 09:24:53;;;;;;;8.00;7.23;;;18.80;99.90;;;;;;5039451;28;20526;-64
2021/10/10 09:27:22;;;;;;;8.20;7.40;;;18.90;99.90;;;;;;5032042;28;20274;-64
2021/10/10 09:29:50;;;;;;;7.53;6.93;;;18.80;99.90;;;;;;5042973;28;20205;-63
2021/10/10 09:32:20;;;;;;;10.17;7.83;;;18.50;99.90;;;;;;5051745;28;20178;-65
2021/10/10 09:34:49;;;;;;;8.20;7.50;;;18.30;99.90;;;;;;5039261;28;20649;-64
2021/10/10 09:37:41;;;;;;;8.33;7.43;;;18.10;99.90;;;;;;5044850;28;20218;-65
2021/10/10 09:40:14;;;;;;;7.03;6.53;;;18.20;99.90;;;;;;5037919;28;20175;-63
2021/10/10 09:42:46;;;;;;;8.23;7.43;;;18.50;99.90;;;;;;5030867;28;20172;-62
2021/10/10 09:45:13;;;;;;;8.40;7.60;;;19.10;99.90;;;;;;5042480;28;20220;-63
2021/10/10 09:47:54;;;;;;;7.87;7.20;;;19.30;99.90;;;;;;5051512;28;20189;-64
2021/10/10 09:50:20;;;;;;;8.20;7.50;;;19.10;99.90;;;;;;5037106;28;20224;-64
2021/10/10 09:52:46;;;;;;;8.23;7.57;;;19.10;99.90;;;;;;5031506;28;20175;-64
2021/10/10 09:55:12;;;;;;;8.20;7.50;;;19.20;99.90;;;;;;5032766;28;20183;-65
2021/10/10 09:57:48;;;;;;;8.20;7.10;;;19.30;99.90;;;;;;5095401;22;20222;-63
2021/10/10 10:00:32;;;;;;;8.98;7.85;;;19.40;99.90;;;;;;5049536;28;20223;-65
2021/10/10 10:03:08;;;;;;;8.48;7.78;;;19.80;99.90;;;;;;5051531;28;20176;-65
2021/10/10 10:05:34;;;;;;;9.05;8.15;;;19.90;99.90;;;;;;5034647;28;20577;-64
2021/10/10 10:08:01;;;;;;;7.97;7.30;;;20.10;99.90;;;;;;5031289;28;20671;-64
2021/10/10 10:10:29;;;;;;;8.50;7.70;;;20.20;99.90;;;;;;5045360;28;20230;-64
2021/10/10 10:12:56;;;;;;;8.50;7.55;;;20.10;99.90;;;;;;5051439;28;20663;-65
2021/10/10 10:15:29;;;;;;;8.75;7.95;;;20.10;99.90;;;;;;5037553;28;20272;-65
2021/10/10 10:17:57;;;;;;;8.35;7.28;;;20.00;99.90;;;;;;5031110;28;20222;-64
2021/10/10 10:20:24;;;;;;;9.27;8.00;;;20.10;99.90;;;;;;5030813;28;20184;-65
2021/10/10 10:22:52;;;;;;;7.45;6.53;;;20.10;99.90;;;;;;5039169;28;20565;-64
2021/10/10 10:25:19;;;;;;;7.85;7.15;;;20.10;99.90;;;;;;5044670;28;20172;-65
2021/10/10 10:27:45;;;;;;;7.85;7.05;;;20.30;99.90;;;;;;5031347;28;20207;-63
2021/10/10 10:30:11;;;;;;;8.02;7.22;;;20.60;99.90;;;;;;5035472;28;20179;-64
2021/10/10 10:32:37;;;;;;;7.57;6.32;;;20.60;99.90;;;;;;5051088;28;20648;-65
2021/10/10 10:35:12;;;;;;;7.32;6.70;;;20.90;99.90;;;;;;5047842;28;20225;-64
2021/10/10 10:37:43;;;;;;;8.55;7.75;;;21.20;99.90;;;;;;5030739;28;20233;-65
2021/10/10 10:40:15;;;;;;;7.78;7.07;;;21.20;99.90;;;;;;5034021;28;20206;-64
2021/10/10 10:42:48;;;;;;;7.43;6.68;;;21.20;99.90;;;;;;5050916;28;20171;-63
2021/10/10 10:45:21;;;;;;;7.45;6.75;;;21.40;99.90;;;;;;5047274;28;20214;-62
2021/10/10 10:47:48;;;;;;;6.80;6.28;;;21.90;99.90;;;;;;5030923;28;20203;-63
2021/10/10 10:50:28;;;;;;;9.27;7.13;;;22.50;99.90;;;;;;5033584;28;20536;-63
2021/10/10 10:52:59;;;;;;;7.05;6.45;;;23.30;99.90;;;;;;5050146;28;20178;-63
2021/10/10 10:55:35;;;;;;;8.20;7.40;;;23.70;99.90;;;;;;5049881;28;20171;-63
2021/10/10 10:58:12;;;;;;;7.80;7.03;;;24.10;99.90;;;;;;5037484;28;20202;-63
2021/10/10 11:00:39;;;;;;;9.80;8.80;;;24.40;99.90;;;;;;5054098;28;20174;-62
2021/10/10 11:03:09;;;;;;;7.75;6.95;;;25.00;99.90;;;;;;5051202;28;20172;-63
2021/10/10 11:05:47;;;;;;;7.65;6.85;;;25.50;99.90;;;;;;5036381;28;20250;-62
2021/10/10 11:08:16;;;;;;;7.50;6.80;;;25.70;99.90;;;;;;5054692;28;20202;-63
2021/10/10 11:11:07;;;;;;;8.15;7.40;;;25.60;99.90;;;;;;5051373;28;20269;-62
2021/10/10 11:13:44;;;;;;;8.10;7.40;;;24.80;99.90;;;;;;5035474;28;20184;-63
2021/10/10 11:16:25;;;;;;;7.95;7.15;;;24.10;99.90;;;;;;5039196;28;20293;-62
2021/10/10 11:18:56;;;;;;;6.80;6.22;;;23.60;99.90;;;;;;5053440;28;20167;-63
2021/10/10 11:21:34;;;;;;;7.78;7.13;;;23.10;99.90;;;;;;5053904;28;20264;-62
2021/10/10 11:24:00;;;;;;;8.07;7.28;;;22.70;99.90;;;;;;5053077;28;20201;-61
2021/10/10 11:26:28;;;;;;;7.57;6.88;;;22.40;99.90;;;;;;5036501;28;20278;-62
2021/10/10 11:29:07;;;;;;;8.27;7.45;;;22.40;99.90;;;;;;5053654;28;20174;-62
2021/10/10 11:31:34;;;;;;;8.25;7.45;;;22.70;99.90;;;;;;5034514;28;20664;-63
2021/10/10 11:34:04;;;;;;;8.38;7.78;;;22.70;99.90;;;;;;5034168;28;20188;-63
2021/10/10 11:36:34;;;;;;;8.25;7.50;;;22.40;99.90;;;;;;5033780;28;20269;-63
2021/10/10 11:39:00;;;;;;;7.80;7.10;;;22.30;99.90;;;;;;5033830;28;20198;-63
2021/10/10 11:41:27;;;;;;;8.05;7.30;;;22.50;99.90;;;;;;5034161;28;20179;-62
2021/10/10 11:44:13;;;;;;;8.98;8.18;;;22.40;99.90;;;;;;5037636;28;20214;-63
2021/10/10 11:46:40;;;;;;;8.68;7.88;;;22.40;99.90;;;;;;5033508;28;20294;-63
2021/10/10 11:49:21;;;;;;;8.45;7.65;;;22.40;99.90;;;;;;5045077;28;20187;-63
2021/10/10 11:51:49;;;;;;;8.05;7.35;;;22.40;99.90;;;;;;5033725;28;20632;-63
2021/10/10 11:54:26;;;;;;;8.52;7.65;;;22.40;99.90;;;;;;5033819;28;20178;-63
2021/10/10 11:56:59;;;;;;;9.63;7.28;;;22.30;99.90;;;;;;5049077;28;20221;-63
2021/10/10 11:59:25;;;;;;;8.52;7.38;;;22.30;99.90;;;;;;5053208;28;20714;-63
2021/10/10 12:01:55;;;;;;;6.82;6.20;;;21.90;99.90;;;;;;5037410;28;20672;-63
2021/10/10 12:04:21;;;;;;;7.95;7.15;;;21.70;99.90;;;;;;5033755;28;20556;-63
2021/10/10 12:06:48;;;;;;;7.93;7.18;;;21.60;99.90;;;;;;5046897;28;20205;-63
2021/10/10 12:09:14;;;;;;;8.52;7.28;;;21.70;99.90;;;;;;5051921;28;20179;-63
2021/10/10 12:11:40;;;;;;;8.93;8.13;;;22.20;99.90;;;;;;5040267;28;20624;-62
2021/10/10 12:14:07;;;;;;;8.10;7.40;;;22.60;99.90;;;;;;5033379;28;20255;-63
2021/10/10 12:16:42;;;;;;;7.35;6.65;;;23.10;99.90;;;;;;5043193;28;20256;-63
2021/10/10 12:19:09;;;;;;;8.05;7.32;;;23.50;99.90;;;;;;5053188;28;20248;-63
2021/10/10 12:21:36;;;;;;;8.13;7.28;;;23.90;99.90;;;;;;5042093;28;20699;-63
2021/10/10 12:24:03;;;;;;;7.50;6.80;;;24.00;99.90;;;;;;5034633;28;20182;-63
2021/10/10 12:26:30;;;;;;;7.55;6.88;;;23.90;99.90;;;;;;5042666;28;20284;-66
2021/10/10 12:28:55;;;;;;;8.55;7.85;;;23.90;99.90;;;;;;5033229;28;20586;-63
2021/10/10 12:31:21;;;;;;;8.60;7.70;;;23.20;99.90;;;;;;5051835;28;20206;-63
2021/10/10 12:33:47;;;;;;;8.23;7.43;;;23.10;99.90;;;;;;5046012;28;20179;-63
2021/10/10 12:36:16;;;;;;;7.78;7.03;;;22.80;99.90;;;;;;5042134;28;20212;-63
2021/10/10 12:38:48;;;;;;;7.57;6.95;;;23.00;99.90;;;;;;5040640;28;20178;-63
2021/10/10 12:41:20;;;;;;;6.63;6.03;;;23.30;99.90;;;;;;5052730;28;20203;-63
2021/10/10 12:43:53;;;;;;;7.28;6.78;;;23.60;99.90;;;;;;5052756;28;20656;-64
2021/10/10 12:46:20;;;;;;;7.65;7.00;;;23.60;99.90;;;;;;5052689;28;20256;-62
2021/10/10 12:49:07;;;;;;;9.07;8.27;;;23.70;99.90;;;;;;5052778;28;20257;-63
2021/10/10 12:51:34;;;;;;;7.35;6.65;;;23.70;99.90;;;;;;5051831;28;20225;-63